createdAt,value
2018-05-15T00:02:14.968Z,10.57
2018-05-15T00:04:42.595Z,10.73
2018-05-15T00:07:10.143Z,10.13
2018-05-15T00:09:37.709Z,11.00
2018-05-15T00:12:10.378Z,11.30
2018-05-15T00:14:37.938Z,10.13
2018-05-15T00:17:05.383Z,10.53
2018-05-15T00:19:32.859Z,9.50
2018-05-15T00:22:00.323Z,10.17
2018-05-15T00:24:27.874Z,9.70
2018-05-15T00:26:58.599Z,9.87
2018-05-15T00:29:26.173Z,10.23
2018-05-15T00:31:53.643Z,9.73
2018-05-15T00:34:21.092Z,9.47
2018-05-15T00:36:51.524Z,9.30
2018-05-15T00:39:19.099Z,8.40
2018-05-15T00:41:46.608Z,8.77
2018-05-15T00:44:14.100Z,9.20
2018-05-15T00:46:42.503Z,9.30
2018-05-15T00:49:10.319Z,8.17
2018-05-15T00:51:38.811Z,8.33
2018-05-15T00:54:07.476Z,7.93
2018-05-15T00:56:35.030Z,8.00
2018-05-15T00:59:02.614Z,7.80
2018-05-15T01:01:30.174Z,7.00
2018-05-15T01:03:58.210Z,7.40
2018-05-15T01:06:26.676Z,7.30
2018-05-15T01:08:54.282Z,7.10
2018-05-15T01:11:21.735Z,6.97
2018-05-15T01:13:49.822Z,7.30
2018-05-15T01:16:17.291Z,7.13
2018-05-15T01:18:45.290Z,6.33
2018-05-15T01:21:12.761Z,7.93
2018-05-15T01:23:40.297Z,7.07
2018-05-15T01:26:07.914Z,6.90
2018-05-15T01:28:35.450Z,6.97
2018-05-15T01:31:02.899Z,6.87
2018-05-15T01:33:30.345Z,6.97
2018-05-15T01:35:57.929Z,6.97
2018-05-15T01:38:25.605Z,7.10
2018-05-15T01:40:53.250Z,6.53
2018-05-15T01:43:20.701Z,6.73
2018-05-15T01:45:48.157Z,6.93
2018-05-15T01:48:15.596Z,6.33
2018-05-15T01:50:43.155Z,6.57
2018-05-15T01:53:10.606Z,6.60
2018-05-15T01:55:38.203Z,6.30
2018-05-15T01:58:07.152Z,6.10
2018-05-15T02:00:34.741Z,6.30
2018-05-15T02:03:02.396Z,6.53
2018-05-15T02:05:30.074Z,6.07
2018-05-15T02:07:57.587Z,6.30
2018-05-15T02:10:25.266Z,6.00
2018-05-15T02:12:52.836Z,6.63
2018-05-15T02:15:20.460Z,6.87
2018-05-15T02:17:48.685Z,6.57
2018-05-15T02:20:16.250Z,6.47
2018-05-15T02:22:43.706Z,5.80
2018-05-15T02:25:12.678Z,6.30
2018-05-15T02:27:40.132Z,6.00
2018-05-15T02:30:07.648Z,6.27
2018-05-15T02:32:35.151Z,6.37
2018-05-15T02:35:02.590Z,6.13
2018-05-15T02:37:30.073Z,5.73
2018-05-15T02:39:57.610Z,5.87
2018-05-15T02:42:25.190Z,6.43
2018-05-15T02:44:52.836Z,6.00
2018-05-15T02:47:20.387Z,5.97
2018-05-15T02:49:47.981Z,5.83
2018-05-15T02:52:15.640Z,6.27
2018-05-15T02:54:43.112Z,7.00
2018-05-15T02:57:10.751Z,6.00
2018-05-15T02:59:38.211Z,6.20
2018-05-15T03:02:05.729Z,5.93
2018-05-15T03:04:33.188Z,6.40
2018-05-15T03:07:00.772Z,6.20
2018-05-15T03:09:28.238Z,5.83
2018-05-15T03:11:55.876Z,5.97
2018-05-15T03:14:23.320Z,6.27
2018-05-15T03:16:50.875Z,5.60
2018-05-15T03:19:18.463Z,6.07
2018-05-15T03:21:46.142Z,6.03
2018-05-15T03:24:13.581Z,6.37
2018-05-15T03:26:41.118Z,6.17
2018-05-15T03:29:08.707Z,6.23
2018-05-15T03:31:36.367Z,6.03
2018-05-15T03:34:03.800Z,6.27
2018-05-15T03:36:31.363Z,6.10
2018-05-15T03:38:58.930Z,5.93
2018-05-15T03:41:26.479Z,5.73
2018-05-15T03:43:54.264Z,6.30
2018-05-15T03:46:21.905Z,5.67
2018-05-15T03:48:49.375Z,5.90
2018-05-15T03:51:16.823Z,6.17
2018-05-15T03:53:44.289Z,7.07
2018-05-15T03:56:11.825Z,6.00
2018-05-15T03:58:39.600Z,6.27
2018-05-15T04:01:18.976Z,6.80
2018-05-15T04:03:58.474Z,6.60
2018-05-15T04:06:37.715Z,6.67
2018-05-15T04:09:05.210Z,6.43
2018-05-15T04:11:33.271Z,6.90
2018-05-15T04:14:02.009Z,6.30
2018-05-15T04:16:30.615Z,6.50
2018-05-15T04:18:58.119Z,6.60
2018-05-15T04:21:25.664Z,6.60
2018-05-15T04:23:53.101Z,6.33
2018-05-15T04:26:20.552Z,7.03
2018-05-15T04:28:48.055Z,6.77
2018-05-15T04:31:15.663Z,6.10
2018-05-15T04:33:43.299Z,6.57
2018-05-15T04:36:10.758Z,6.40
2018-05-15T04:38:38.300Z,6.93
2018-05-15T04:41:05.749Z,6.90
2018-05-15T04:43:33.356Z,6.77
2018-05-15T04:46:00.876Z,6.70
2018-05-15T04:48:28.324Z,6.77
2018-05-15T04:50:55.791Z,7.80
2018-05-15T04:53:23.358Z,6.87
2018-05-15T04:55:50.861Z,7.00
2018-05-15T04:58:18.508Z,6.27
2018-05-15T05:00:47.463Z,7.07
2018-05-15T05:03:15.040Z,7.07
2018-05-15T05:05:43.995Z,6.23
2018-05-15T05:08:11.591Z,6.10
2018-05-15T05:10:39.041Z,6.30
2018-05-15T05:13:06.689Z,6.60
2018-05-15T05:15:34.351Z,6.47
2018-05-15T05:18:01.813Z,6.67
2018-05-15T05:20:29.278Z,6.33
2018-05-15T05:22:56.801Z,6.50
2018-05-15T05:25:24.259Z,5.90
2018-05-15T05:27:51.712Z,6.60
2018-05-15T05:30:19.504Z,6.83
2018-05-15T05:32:47.993Z,6.60
2018-05-15T05:35:15.646Z,6.60
2018-05-15T05:37:43.176Z,6.50
2018-05-15T05:40:10.729Z,7.47
2018-05-15T05:42:38.930Z,6.87
2018-05-15T05:45:06.396Z,6.20
2018-05-15T05:47:33.825Z,6.63
2018-05-15T05:50:01.401Z,6.53
2018-05-15T05:52:28.871Z,6.83
2018-05-15T05:54:56.391Z,6.53
2018-05-15T05:57:23.847Z,6.40
2018-05-15T05:59:51.451Z,5.83
2018-05-15T06:02:19.904Z,6.67
2018-05-15T06:04:48.265Z,6.90
2018-05-15T06:07:16.979Z,6.63
2018-05-15T06:09:45.545Z,6.67
2018-05-15T06:12:13.216Z,6.80
2018-05-15T06:14:41.987Z,6.40
2018-05-15T06:17:14.390Z,6.40
2018-05-15T06:19:41.927Z,7.13
2018-05-15T06:22:09.385Z,6.93
2018-05-15T06:24:37.067Z,6.53
2018-05-15T06:27:04.516Z,6.87
2018-05-15T06:29:32.170Z,6.60
2018-05-15T06:31:59.628Z,6.90
2018-05-15T06:34:27.165Z,7.20
2018-05-15T06:36:54.755Z,6.97
2018-05-15T06:39:23.847Z,7.13
2018-05-15T06:41:51.306Z,6.60
2018-05-15T06:44:18.767Z,6.77
2018-05-15T06:46:46.320Z,6.57
2018-05-15T06:49:13.877Z,6.80
2018-05-15T06:51:41.534Z,7.37
2018-05-15T06:54:08.968Z,7.20
2018-05-15T06:56:36.543Z,6.70
2018-05-15T06:59:04.302Z,7.53
2018-05-15T07:01:31.974Z,6.70
2018-05-15T07:03:59.508Z,7.43
2018-05-15T07:06:27.079Z,7.27
2018-05-15T07:08:54.627Z,6.77
2018-05-15T07:11:22.214Z,7.07
2018-05-15T07:13:51.290Z,6.80
2018-05-15T07:16:18.752Z,6.97
2018-05-15T07:18:46.192Z,6.93
2018-05-15T07:21:13.683Z,6.77
2018-05-15T07:23:41.127Z,6.90
2018-05-15T07:26:08.794Z,7.13
2018-05-15T07:28:36.327Z,7.23
2018-05-15T07:31:03.889Z,7.67
2018-05-15T07:33:31.554Z,7.17
2018-05-15T07:35:59.098Z,6.67
2018-05-15T07:38:26.677Z,7.03
2018-05-15T07:40:54.338Z,7.27
2018-05-15T07:43:21.870Z,6.87
2018-05-15T07:45:49.471Z,7.33
2018-05-15T07:48:16.993Z,7.00
2018-05-15T07:50:44.456Z,6.27
2018-05-15T07:53:11.893Z,7.80
2018-05-15T07:55:39.364Z,6.70
2018-05-15T07:58:06.808Z,6.80
2018-05-15T08:00:34.328Z,6.53
2018-05-15T08:03:02.554Z,6.77
2018-05-15T08:05:30.004Z,6.37
2018-05-15T08:07:57.462Z,7.70
2018-05-15T08:10:25.043Z,6.90
2018-05-15T08:12:52.688Z,6.80
2018-05-15T08:15:20.150Z,7.43
2018-05-15T08:17:47.602Z,6.00
2018-05-15T08:20:15.053Z,6.40
2018-05-15T08:22:42.542Z,6.33
2018-05-15T08:25:10.828Z,6.73
2018-05-15T08:27:39.057Z,6.80
2018-05-15T08:30:07.145Z,6.70
2018-05-15T08:32:34.790Z,6.77
2018-05-15T08:35:02.296Z,6.50
2018-05-15T08:37:29.830Z,6.07
2018-05-15T08:39:57.392Z,5.53
2018-05-15T08:42:25.044Z,5.87
2018-05-15T08:44:52.495Z,5.50
2018-05-15T08:47:20.703Z,5.90
2018-05-15T08:49:49.045Z,5.10
2018-05-15T08:52:16.695Z,5.30
2018-05-15T08:54:44.157Z,5.33
2018-05-15T08:57:11.684Z,5.23
2018-05-15T08:59:39.489Z,5.70
2018-05-15T09:02:07.133Z,4.73
2018-05-15T09:04:34.793Z,4.70
2018-05-15T09:07:02.269Z,4.60
2018-05-15T09:09:29.731Z,4.17
2018-05-15T09:11:57.248Z,4.10
2018-05-15T09:14:24.710Z,3.90
2018-05-15T09:16:52.184Z,5.00
2018-05-15T09:19:20.045Z,4.30
2018-05-15T09:21:47.620Z,2.93
2018-05-15T09:24:15.084Z,3.10
2018-05-15T09:26:42.725Z,3.60
2018-05-15T09:29:10.182Z,3.67
2018-05-15T09:31:37.712Z,3.27
2018-05-15T09:34:05.160Z,3.67
2018-05-15T09:36:32.716Z,3.30
2018-05-15T09:39:00.144Z,3.07
2018-05-15T09:41:28.476Z,3.80
2018-05-15T09:43:55.927Z,3.20
2018-05-15T09:46:23.382Z,4.20
2018-05-15T09:48:51.055Z,3.03
2018-05-15T09:51:18.575Z,3.40
2018-05-15T09:53:46.051Z,3.80
2018-05-15T09:56:13.511Z,3.20
2018-05-15T09:58:41.020Z,3.33
2018-05-15T10:01:09.742Z,3.10
2018-05-15T10:03:38.254Z,3.63
2018-05-15T10:06:05.916Z,3.50
2018-05-15T10:08:33.560Z,2.83
2018-05-15T10:11:01.055Z,3.60
2018-05-15T10:13:28.693Z,3.20
2018-05-15T10:15:56.223Z,3.60
2018-05-15T10:18:23.997Z,3.23
2018-05-15T10:20:51.667Z,3.20
2018-05-15T10:23:19.201Z,2.90
2018-05-15T10:25:46.640Z,2.70
2018-05-15T10:28:14.251Z,3.13
2018-05-15T10:30:41.770Z,3.17
2018-05-15T10:33:09.359Z,2.67
2018-05-15T10:35:36.827Z,3.23
2018-05-15T10:38:04.292Z,2.97
2018-05-15T10:40:31.799Z,3.10
2018-05-15T10:42:59.233Z,2.90
2018-05-15T10:45:26.838Z,2.70
2018-05-15T10:47:54.376Z,3.40
2018-05-15T10:50:21.906Z,3.27
2018-05-15T10:52:49.354Z,2.73
2018-05-15T10:55:17.568Z,2.63
2018-05-15T10:57:45.008Z,3.10
2018-05-15T11:00:12.561Z,3.33
2018-05-15T11:02:40.049Z,3.40
2018-05-15T11:05:07.711Z,3.33
2018-05-15T11:07:35.244Z,3.60
2018-05-15T11:10:02.825Z,3.10
2018-05-15T11:12:30.273Z,2.80
2018-05-15T11:14:57.932Z,3.30
2018-05-15T11:17:26.283Z,3.07
2018-05-15T11:20:05.971Z,3.47
2018-05-15T11:22:45.176Z,3.17
2018-05-15T11:25:12.815Z,2.97
2018-05-15T11:27:40.283Z,3.20
2018-05-15T11:30:07.808Z,3.60
2018-05-15T11:32:36.032Z,3.50
2018-05-15T11:35:03.623Z,3.17
2018-05-15T11:37:33.520Z,2.90
2018-05-15T11:40:01.169Z,3.17
2018-05-15T11:42:28.829Z,5.97
2018-05-15T11:44:56.506Z,7.27
2018-05-15T11:47:24.121Z,7.73
2018-05-15T11:49:52.024Z,7.60
2018-05-15T11:52:20.071Z,4.83
2018-05-15T11:54:46.733Z,7.97
2018-05-15T11:57:14.383Z,7.60
2018-05-15T11:59:42.110Z,7.20
2018-05-15T12:02:09.689Z,6.47
2018-05-15T12:04:37.380Z,7.70
2018-05-15T12:07:04.868Z,7.20
2018-05-15T12:09:32.302Z,7.60
2018-05-15T12:11:59.845Z,7.23
2018-05-15T12:14:27.407Z,6.30
2018-05-15T12:16:55.053Z,6.70
2018-05-15T12:19:22.518Z,6.90
2018-05-15T12:21:50.180Z,6.33
2018-05-15T12:24:17.724Z,5.50
2018-05-15T12:26:45.164Z,6.27
2018-05-15T12:29:12.685Z,7.23
2018-05-15T12:31:41.023Z,6.10
2018-05-15T12:34:08.489Z,6.77
2018-05-15T12:36:35.936Z,6.10
2018-05-15T12:39:03.390Z,5.40
2018-05-15T12:41:30.981Z,5.60
2018-05-15T12:43:58.501Z,5.70
2018-05-15T12:46:26.042Z,5.13
2018-05-15T12:48:53.695Z,4.90
2018-05-15T12:51:21.046Z,5.87
2018-05-15T12:53:48.551Z,6.00
2018-05-15T12:56:16.066Z,5.47
2018-05-15T12:58:43.854Z,5.10
2018-05-15T13:01:11.515Z,4.87
2018-05-15T13:03:39.044Z,4.83
2018-05-15T13:06:06.639Z,4.97
2018-05-15T13:08:34.314Z,5.13
2018-05-15T13:11:01.955Z,4.60
2018-05-15T13:13:29.496Z,4.70
2018-05-15T13:15:56.948Z,4.47
2018-05-15T13:18:24.759Z,5.10
2018-05-15T13:20:52.263Z,5.10
2018-05-15T13:23:19.854Z,4.40
2018-05-15T13:25:47.328Z,5.00
2018-05-15T13:28:16.144Z,4.47
2018-05-15T13:30:43.866Z,4.50
2018-05-15T13:33:11.327Z,4.80
2018-05-15T13:35:38.776Z,5.60
2018-05-15T13:38:07.861Z,5.43
2018-05-15T13:40:35.435Z,5.40
2018-05-15T13:43:02.978Z,4.70
2018-05-15T13:45:30.647Z,5.13
2018-05-15T13:47:58.292Z,5.07
2018-05-15T13:50:25.836Z,5.47
2018-05-15T13:52:53.459Z,5.63
2018-05-15T13:55:20.935Z,5.93
2018-05-15T13:57:48.383Z,5.40
2018-05-15T14:00:16.033Z,5.67
2018-05-15T14:02:43.624Z,6.70
2018-05-15T14:05:12.000Z,5.83
2018-05-15T14:07:40.485Z,4.90
2018-05-15T14:10:08.876Z,4.90
2018-05-15T14:12:36.453Z,4.80
2018-05-15T14:15:03.892Z,5.00
2018-05-15T14:17:31.338Z,4.73
2018-05-15T14:19:58.870Z,5.20
2018-05-15T14:22:26.588Z,6.20
2018-05-15T14:25:00.189Z,6.03
2018-05-15T14:27:34.477Z,6.07
2018-05-15T14:30:02.264Z,7.00
2018-05-15T14:32:32.042Z,6.67
2018-05-15T14:34:59.525Z,6.70
2018-05-15T14:37:26.974Z,6.77
2018-05-15T14:39:54.543Z,6.77
2018-05-15T14:42:33.876Z,6.40
2018-05-15T14:45:01.525Z,7.67
2018-05-15T14:47:29.072Z,8.07
2018-05-15T14:49:57.519Z,8.67
2018-05-15T14:52:27.656Z,8.97
2018-05-15T14:54:55.172Z,8.50
2018-05-15T14:57:22.797Z,9.70
2018-05-15T14:59:50.368Z,9.97
2018-05-15T15:02:17.920Z,10.17
2018-05-15T15:04:46.380Z,10.10
2018-05-15T15:07:13.828Z,9.65
2018-05-15T15:09:42.237Z,9.23
2018-05-15T15:12:09.793Z,8.50
2018-05-15T15:14:38.195Z,9.53
2018-05-15T15:17:05.693Z,9.30
2018-05-15T15:19:33.371Z,8.40
2018-05-15T15:22:01.557Z,8.43
2018-05-15T15:24:29.152Z,7.07
2018-05-15T15:26:57.396Z,7.93
2018-05-15T15:29:25.148Z,7.07
2018-05-15T15:31:53.369Z,7.53
2018-05-15T15:34:21.576Z,7.03
2018-05-15T15:36:49.038Z,6.60
2018-05-15T15:39:16.813Z,7.63
2018-05-15T15:41:44.260Z,7.73
2018-05-15T15:44:11.696Z,7.23
2018-05-15T15:46:39.161Z,6.87
2018-05-15T15:49:06.742Z,6.83
2018-05-15T15:51:34.400Z,6.47
2018-05-15T15:54:01.921Z,6.67
2018-05-15T15:56:29.386Z,6.63
2018-05-15T15:58:56.970Z,6.40
2018-05-15T16:01:25.148Z,6.33
2018-05-15T16:03:52.826Z,6.60
2018-05-15T16:06:21.371Z,7.07
2018-05-15T16:08:49.027Z,7.10
2018-05-15T16:11:17.379Z,7.20
2018-05-15T16:13:46.501Z,7.87
2018-05-15T16:16:14.028Z,7.13
2018-05-15T16:18:41.941Z,6.50
2018-05-15T16:21:09.574Z,7.20
2018-05-15T16:23:37.083Z,5.93
2018-05-15T16:26:04.565Z,6.40
2018-05-15T16:28:32.965Z,6.20
2018-05-15T16:31:00.443Z,6.13
2018-05-15T16:33:28.035Z,5.83
2018-05-15T16:35:55.516Z,5.33
2018-05-15T16:38:22.952Z,5.50
2018-05-15T16:40:51.311Z,5.40
2018-05-15T16:43:18.908Z,4.90
2018-05-15T16:45:46.387Z,6.20
2018-05-15T16:48:13.895Z,5.47
2018-05-15T16:50:41.346Z,5.00
2018-05-15T16:53:10.424Z,4.77
2018-05-15T16:55:38.015Z,5.57
2018-05-15T16:58:05.535Z,5.20
2018-05-15T17:00:33.192Z,5.27
2018-05-15T17:03:00.650Z,4.80
2018-05-15T17:05:28.126Z,4.57
2018-05-15T17:07:55.695Z,4.70
2018-05-15T17:10:24.156Z,5.40
2018-05-15T17:12:51.617Z,4.43
2018-05-15T17:15:19.079Z,4.57
2018-05-15T17:17:46.731Z,4.73
2018-05-15T17:20:14.333Z,4.60
2018-05-15T17:22:42.956Z,4.50
2018-05-15T17:25:10.540Z,4.40
2018-05-15T17:27:38.024Z,4.83
2018-05-15T17:30:05.475Z,4.57
2018-05-15T17:32:33.920Z,4.70
2018-05-15T17:35:01.577Z,4.33
2018-05-15T17:37:29.255Z,4.70
2018-05-15T17:39:56.711Z,4.87
2018-05-15T17:42:24.164Z,5.27
2018-05-15T17:44:51.690Z,5.03
2018-05-15T17:47:19.349Z,4.97
2018-05-15T17:49:46.759Z,5.10
2018-05-15T17:52:15.836Z,5.00
2018-05-15T17:54:44.318Z,5.30
2018-05-15T17:57:11.886Z,5.57
2018-05-15T17:59:40.286Z,5.63
2018-05-15T18:02:07.841Z,6.23
2018-05-15T18:04:36.056Z,5.40
2018-05-15T18:07:03.527Z,5.10
2018-05-15T18:09:31.134Z,5.53
2018-05-15T18:11:58.611Z,5.40
2018-05-15T18:14:26.214Z,5.63
2018-05-15T18:16:55.400Z,6.07
2018-05-15T18:19:22.904Z,6.00
2018-05-15T18:21:50.481Z,5.47
2018-05-15T18:24:17.886Z,6.70
2018-05-15T18:26:45.819Z,18.17
2018-05-15T18:29:13.352Z,8.20
2018-05-15T18:31:40.870Z,8.30
2018-05-15T18:34:08.561Z,7.60
2018-05-15T18:36:36.140Z,7.33
2018-05-15T18:39:03.607Z,5.30
2018-05-15T18:41:31.120Z,5.30
2018-05-15T18:43:59.675Z,5.70
2018-05-15T18:46:28.469Z,5.23
2018-05-15T18:48:56.840Z,7.07
2018-05-15T18:51:25.154Z,8.53
2018-05-15T18:53:53.670Z,5.60
2018-05-15T18:56:21.171Z,5.20
2018-05-15T18:58:48.797Z,4.77
2018-05-15T19:01:16.290Z,4.70
2018-05-15T19:03:44.380Z,4.53
2018-05-15T19:06:13.107Z,4.50
2018-05-15T19:08:40.709Z,5.23
2018-05-15T19:11:08.985Z,5.17
2018-05-15T19:13:36.449Z,5.20
2018-05-15T19:16:04.122Z,5.55
2018-05-15T19:18:31.733Z,5.70
2018-05-15T19:20:59.197Z,6.33
2018-05-15T19:23:26.869Z,6.03
2018-05-15T19:25:54.554Z,6.33
2018-05-15T19:28:22.078Z,7.13
2018-05-15T19:30:49.645Z,7.17
2018-05-15T19:33:17.206Z,7.57
2018-05-15T19:35:44.584Z,7.70
2018-05-15T19:38:12.893Z,7.57
2018-05-15T19:40:41.520Z,7.70
2018-05-15T19:43:09.155Z,8.57
2018-05-15T19:45:36.641Z,9.17
2018-05-15T19:48:04.293Z,8.87
2018-05-15T19:50:35.318Z,9.63
2018-05-15T19:53:02.913Z,9.73
2018-05-15T19:55:30.444Z,10.50
2018-05-15T19:57:57.901Z,10.50
2018-05-15T20:00:25.446Z,11.90
2018-05-15T20:02:53.303Z,10.73
2018-05-15T20:05:20.819Z,11.10
2018-05-15T20:07:48.287Z,11.30
2018-05-15T20:10:16.738Z,11.30
2018-05-15T20:12:44.337Z,11.53
2018-05-15T20:15:11.793Z,10.87
2018-05-15T20:17:39.301Z,9.70
2018-05-15T20:20:09.187Z,10.10
2018-05-15T20:22:36.750Z,8.87
2018-05-15T20:25:04.207Z,7.23
2018-05-15T20:27:31.679Z,7.07
2018-05-15T20:30:00.121Z,6.80
2018-05-15T20:32:27.723Z,6.73
2018-05-15T20:34:56.728Z,7.50
2018-05-15T20:37:24.255Z,7.40
2018-05-15T20:39:51.931Z,8.30
2018-05-15T20:42:19.396Z,8.80
2018-05-15T20:44:46.928Z,9.23
2018-05-15T20:47:14.398Z,10.50
2018-05-15T20:49:42.039Z,10.00
2018-05-15T20:52:09.516Z,9.90
2018-05-15T20:54:37.360Z,9.90
2018-05-15T20:57:04.893Z,9.70
2018-05-15T20:59:32.292Z,9.43
2018-05-15T21:01:59.850Z,9.80
2018-05-15T21:04:27.481Z,9.27
2018-05-15T21:06:54.964Z,9.10
2018-05-15T21:09:22.616Z,8.70
2018-05-15T21:11:50.091Z,8.43
2018-05-15T21:14:17.746Z,9.53
2018-05-15T21:16:46.705Z,9.50
2018-05-15T21:19:14.503Z,9.80
2018-05-15T21:21:43.454Z,9.67
2018-05-15T21:24:10.911Z,9.23
2018-05-15T21:26:38.398Z,9.50
2018-05-15T21:29:06.913Z,9.30
2018-05-15T21:31:35.264Z,8.50
2018-05-15T21:34:02.784Z,8.73
2018-05-15T21:36:30.253Z,8.90
2018-05-15T21:38:57.824Z,9.20
2018-05-15T21:41:25.370Z,9.17
2018-05-15T21:43:52.829Z,10.50
2018-05-15T21:46:20.291Z,10.63
2018-05-15T21:48:47.793Z,9.77
2018-05-15T21:51:16.008Z,11.37
2018-05-15T21:53:43.457Z,10.90
2018-05-15T21:56:10.915Z,11.33
2018-05-15T21:58:38.715Z,11.07
2018-05-15T22:01:06.431Z,11.67
2018-05-15T22:03:34.035Z,12.37
2018-05-15T22:06:01.689Z,12.37
2018-05-15T22:08:29.169Z,12.10
2018-05-15T22:10:57.331Z,12.77
2018-05-15T22:13:36.745Z,12.93
2018-05-15T22:16:16.087Z,12.93
2018-05-15T22:18:55.440Z,12.53
2018-05-15T22:21:34.749Z,13.43
2018-05-15T22:24:01.706Z,13.47
2018-05-15T22:26:29.155Z,13.37
2018-05-15T22:28:56.713Z,13.03
2018-05-15T22:31:24.172Z,14.67
2018-05-15T22:33:51.821Z,13.97
2018-05-15T22:36:19.508Z,14.37
2018-05-15T22:38:47.163Z,14.67
2018-05-15T22:41:14.671Z,14.03
2018-05-15T22:43:42.133Z,14.23
2018-05-15T22:46:09.791Z,13.73
2018-05-15T22:48:37.381Z,13.73
2018-05-15T22:51:04.916Z,14.17
2018-05-15T22:53:32.372Z,14.40
2018-05-15T22:55:59.963Z,14.93
2018-05-15T22:58:27.511Z,14.87
2018-05-15T23:00:55.176Z,16.67
2018-05-15T23:03:22.749Z,16.23
2018-05-15T23:05:50.393Z,17.17
2018-05-15T23:08:18.056Z,17.93
2018-05-15T23:10:45.500Z,18.03
2018-05-15T23:13:13.490Z,17.60
2018-05-15T23:15:40.998Z,18.43
2018-05-15T23:18:08.507Z,18.27
2018-05-15T23:20:36.043Z,17.20
2018-05-15T23:23:03.486Z,16.73
2018-05-15T23:25:30.954Z,17.97
2018-05-15T23:27:58.406Z,17.97
2018-05-15T23:30:26.069Z,17.37
2018-05-15T23:32:53.527Z,18.17
2018-05-15T23:35:21.125Z,17.30
2018-05-15T23:37:50.208Z,17.80
2018-05-15T23:40:17.880Z,17.40
2018-05-15T23:42:45.387Z,17.77
2018-05-15T23:45:12.996Z,16.00
2018-05-15T23:47:41.963Z,16.70
2018-05-15T23:50:09.460Z,16.73
2018-05-15T23:52:37.811Z,16.63
2018-05-15T23:55:05.473Z,15.77
2018-05-15T23:57:33.135Z,15.43
